Time;durP1;ratioP1;P1;durP2;ratioP2;P2;SDS_P1;SDS_P2;PMS_P1;PMS_P2;Temp;Humidity;BMP_temperature;BMP_pressure;BME280_temperature;BME280_humidity;BME280_pressure;Samples;Min_cycle;Max_cycle;Signal;HPM_P1;HPM_P2
2023/06/30 00:02:55;;;;;;;3.10;1.65;;;;;;;;;;20907551;28;20221;-70
2023/06/30 00:12:57;;;;;;;3.53;1.60;;;;;;;;;;20931805;28;20226;-70
2023/06/30 00:22:59;;;;;;;2.67;1.50;;;;;;;;;;20925360;28;20232;-70
2023/06/30 00:33:01;;;;;;;2.15;1.40;;;;;;;;;;20911294;28;20277;-70
2023/06/30 00:43:03;;;;;;;2.63;1.33;;;;;;;;;;20929171;28;20271;-70
2023/06/30 00:53:06;;;;;;;4.25;1.63;;;;;;;;;;20915376;28;20261;-70
2023/06/30 01:03:19;;;;;;;4.22;1.70;;;23.50;99.90;;;;;;20933265;28;20291;-70
2023/06/30 01:13:21;;;;;;;2.45;1.70;;;;;;;;;;20924657;28;20711;-70
2023/06/30 01:23:34;;;;;;;5.90;1.85;;;23.60;99.90;;;;;;20947843;28;20571;-70
2023/06/30 01:33:40;;;;;;;2.75;1.60;;;23.50;99.90;;;;;;20947005;28;20224;-70
2023/06/30 01:43:42;;;;;;;3.33;1.88;;;;;;;;;;20930053;28;20209;-70
2023/06/30 01:53:44;;;;;;;3.17;1.77;;;;;;;;;;20917470;28;20540;-70
2023/06/30 02:03:48;;;;;;;2.47;1.48;;;;;;;;;;20921394;28;20264;-70
2023/06/30 02:13:50;;;;;;;1.85;1.30;;;;;;;;;;20939060;28;20251;-70
2023/06/30 02:23:52;;;;;;;3.13;1.90;;;;;;;;;;20871877;23;20282;-68
2023/06/30 02:33:54;;;;;;;2.70;1.42;;;;;;;;;;20776795;28;20223;-68
2023/06/30 02:43:56;;;;;;;3.35;1.55;;;;;;;;;;20791534;28;20289;-68
2023/06/30 02:53:58;;;;;;;2.35;1.88;;;;;;;;;;20775708;28;20373;-68
2023/06/30 03:04:00;;;;;;;1.42;1.17;;;;;;;;;;20791227;28;20237;-68
2023/06/30 03:14:06;;;;;;;2.35;1.42;;;;;;;;;;20774501;28;20299;-68
2023/06/30 03:24:16;;;;;;;2.47;1.60;;;;;;;;;;20774622;28;20293;-68
2023/06/30 03:34:18;;;;;;;2.40;1.23;;;;;;;;;;20786887;28;20578;-68
2023/06/30 03:44:21;;;;;;;6.43;2.13;;;;;;;;;;20771106;28;20247;-68
2023/06/30 03:54:23;;;;;;;3.80;1.73;;;;;;;;;;20771165;28;20239;-68
2023/06/30 04:04:25;;;;;;;4.88;2.20;;;;;;;;;;20771180;28;20257;-67
2023/06/30 04:14:27;;;;;;;3.13;2.07;;;;;;;;;;20770661;28;20226;-67
2023/06/30 04:24:29;;;;;;;3.93;2.40;;;;;;;;;;20769972;28;20732;-67
2023/06/30 04:34:30;;;;;;;3.00;2.25;;;;;;;;;;20785621;28;20231;-67
2023/06/30 04:44:33;;;;;;;2.95;1.92;;;;;;;;;;20801355;28;20218;-67
2023/06/30 04:54:35;;;;;;;3.88;2.50;;;;;;;;;;20785153;28;20228;-67
2023/06/30 05:04:36;;;;;;;4.35;2.40;;;;;;;;;;20784640;28;20322;-67
2023/06/30 05:14:38;;;;;;;3.77;2.20;;;;;;;;;;20783587;28;20224;-67
2023/06/30 05:24:40;;;;;;;4.57;2.60;;;;;;;;;;20799464;28;20894;-67
2023/06/30 05:34:46;;;;;;;4.50;2.80;;;;;;;;;;20798819;28;20233;-68
2023/06/30 05:44:48;;;;;;;4.17;3.10;;;;;;;;;;20782463;28;20213;-68
2023/06/30 05:54:50;;;;;;;4.35;2.90;;;;;;;;;;20782072;28;20230;-67
2023/06/30 06:04:52;;;;;;;6.13;3.60;;;;;;;;;;20780382;28;20219;-68
2023/06/30 06:14:53;;;;;;;6.55;4.75;;;;;;;;;;20780823;28;20434;-67
2023/06/30 06:24:55;;;;;;;7.22;5.60;;;;;;;;;;20779594;28;20231;-68
2023/06/30 06:34:57;;;;;;;11.70;7.65;;;;;;;;;;20778807;28;20276;-68
2023/06/30 06:44:59;;;;;;;11.15;8.07;;;;;;;;;;20774954;28;20222;-68
2023/06/30 06:55:02;;;;;;;14.32;8.48;;;;;;;;;;20776731;28;20229;-68
2023/06/30 07:05:04;;;;;;;9.98;6.47;;;;;;;;;;20793507;28;20245;-69
2023/06/30 07:15:06;;;;;;;10.65;7.53;;;;;;;;;;20775668;28;20227;-68
2023/06/30 07:25:08;;;;;;;12.90;7.25;;;;;;;;;;20774930;28;20260;-68
2023/06/30 07:35:11;;;;;;;9.98;6.93;;;;;;;;;;20790556;28;20228;-68
2023/06/30 07:45:14;;;;;;;8.73;5.82;;;;;;;;;;20773356;28;20225;-68
2023/06/30 07:55:22;;;;;;;5.07;3.65;;;;;;;;;;20918187;28;20576;-71
2023/06/30 08:05:24;;;;;;;5.10;3.28;;;;;;;;;;20890014;28;20681;-71
2023/06/30 08:15:26;;;;;;;5.80;3.10;;;;;;;;;;20889308;28;20704;-71
2023/06/30 08:25:28;;;;;;;3.95;2.60;;;;;;;;;;20911983;22;20276;-76
2023/06/30 08:35:30;;;;;;;3.50;2.28;;;;;;;;;;21051101;28;20632;-77
2023/06/30 08:45:32;;;;;;;3.38;2.50;;;;;;;;;;21030181;28;20285;-76
2023/06/30 08:55:38;;;;;;;4.35;2.33;;;;;;;;;;21021882;28;20247;-75
2023/06/30 09:05:40;;;;;;;2.70;1.80;;;;;;;;;;20999542;28;20217;-75
2023/06/30 09:15:42;;;;;;;1.95;1.45;;;;;;;;;;20992644;28;20203;-77
2023/06/30 09:25:44;;;;;;;2.42;1.77;;;;;;;;;;20969266;28;20284;-75
2023/06/30 09:35:47;;;;;;;1.67;1.17;;;;;;;;;;20957040;28;20372;-76
2023/06/30 09:45:55;;;;;;;1.52;1.05;;;24.30;99.90;;;;;;20983062;28;20213;-76
2023/06/30 09:55:57;;;;;;;1.60;1.08;;;;;;;;;;20991988;28;20212;-75
2023/06/30 10:05:59;;;;;;;3.67;1.13;;;;;;;;;;20990330;28;20241;-76
2023/06/30 10:16:01;;;;;;;2.00;1.17;;;23.80;99.90;;;;;;20991704;28;20209;-75
2023/06/30 10:26:05;;;;;;;1.77;1.33;;;;;;;;;;20988362;28;20287;-77
2023/06/30 10:36:07;;;;;;;2.00;1.45;;;;;;;;;;20991957;28;20214;-75
2023/06/30 10:46:09;;;;;;;1.83;1.30;;;;;;;;;;20938037;28;20775;-75
2023/06/30 10:56:11;;;;;;;2.63;1.38;;;;;;;;;;20985844;28;20705;-76
2023/06/30 11:06:21;;;;;;;4.10;2.28;;;;;;;;;;20971492;28;20587;-75
2023/06/30 11:16:28;;;;;;;3.22;1.88;;;24.60;99.90;;;;;;20984210;28;20312;-75
2023/06/30 11:26:35;;;;;;;3.58;2.40;;;24.40;99.90;;;;;;20983622;28;20214;-75
2023/06/30 11:36:37;;;;;;;3.33;1.80;;;;;;;;;;20971896;28;20598;-75
2023/06/30 11:46:39;;;;;;;2.63;1.70;;;;;;;;;;20935026;22;20274;-70
2023/06/30 11:56:41;;;;;;;2.45;1.75;;;;;;;;;;20624029;28;20577;-69
2023/06/30 12:06:43;;;;;;;2.83;2.03;;;;;;;;;;20607456;28;20684;-69
2023/06/30 12:16:49;;;;;;;2.70;2.00;;;26.10;99.90;;;;;;20623156;28;20280;-70
2023/06/30 12:26:51;;;;;;;3.40;2.15;;;25.60;99.90;;;;;;20654706;28;20271;-69
2023/06/30 12:36:55;;;;;;;3.55;2.88;;;25.20;99.90;;;;;;20687555;28;20690;-71
2023/06/30 12:47:05;;;;;;;5.07;3.10;;;26.50;99.90;;;;;;20698491;28;20768;-69
2023/06/30 12:57:07;;;;;;;3.88;2.95;;;;;;;;;;20661767;28;20258;-71
2023/06/30 13:07:09;;;;;;;3.72;3.03;;;;;;;;;;20634350;28;20246;-70
2023/06/30 13:17:11;;;;;;;3.50;2.80;;;;;;;;;;20634673;28;20215;-70
2023/06/30 13:27:13;;;;;;;4.10;2.85;;;;;;;;;;20649198;28;20237;-70
2023/06/30 13:37:16;;;;;;;3.60;2.90;;;;;;;;;;20652591;28;20240;-70
2023/06/30 13:47:18;;;;;;;3.10;2.42;;;;;;;;;;20712192;28;20227;-70
2023/06/30 13:57:20;;;;;;;3.55;2.63;;;;;;;;;;20728507;28;20692;-70
2023/06/30 14:07:25;;;;;;;2.47;1.90;;;;;;;;;;20727362;28;20576;-70
2023/06/30 14:17:27;;;;;;;3.00;1.92;;;;;;;;;;20726650;28;20271;-70
2023/06/30 14:27:28;;;;;;;2.50;1.67;;;;;;;;;;20769994;23;20739;-70
2023/06/30 14:37:30;;;;;;;3.42;2.20;;;;;;;;;;20791517;28;20220;-70
2023/06/30 14:47:32;;;;;;;2.38;1.50;;;;;;;;;;20789427;28;20229;-70
2023/06/30 14:57:34;;;;;;;3.25;1.73;;;;;;;;;;20788437;28;20266;-70
2023/06/30 15:07:36;;;;;;;2.10;1.40;;;;;;;;;;20771770;28;20228;-70
2023/06/30 15:17:38;;;;;;;2.17;1.45;;;;;;;;;;20771181;28;20210;-70
2023/06/30 15:27:40;;;;;;;1.73;1.20;;;;;;;;;;20770095;28;20253;-69
2023/06/30 15:37:42;;;;;;;2.78;1.40;;;;;;;;;;20807325;28;20218;-70
2023/06/30 15:47:45;;;;;;;1.80;1.17;;;;;;;;;;20844827;28;20784;-69
2023/06/30 15:57:47;;;;;;;1.90;1.30;;;;;;;;;;20867464;28;20603;-69
2023/06/30 16:07:49;;;;;;;2.55;1.50;;;;;;;;;;20859523;28;20222;-70
2023/06/30 16:17:52;;;;;;;2.65;1.10;;;;;;;;;;20829673;28;20266;-70
2023/06/30 16:27:54;;;;;;;1.63;1.17;;;;;;;;;;20883207;28;20243;-70
2023/06/30 16:37:59;;;;;;;2.58;1.42;;;;;;;;;;20814259;28;20546;-70
2023/06/30 16:48:02;;;;;;;3.75;1.38;;;;;;;;;;20798701;28;20789;-70
2023/06/30 16:58:05;;;;;;;1.67;0.90;;;;;;;;;;20849007;28;20237;-70
2023/06/30 17:08:06;;;;;;;1.77;0.90;;;;;;;;;;20863157;28;20707;-68
2023/06/30 17:18:08;;;;;;;1.25;0.70;;;;;;;;;;20878712;28;20830;-68
2023/06/30 17:28:10;;;;;;;1.50;0.90;;;;;;;;;;20861970;28;20233;-69
2023/06/30 17:38:12;;;;;;;1.05;0.70;;;;;;;;;;20808387;28;20229;-68
2023/06/30 17:48:14;;;;;;;1.38;0.95;;;;;;;;;;20794174;28;20229;-68
2023/06/30 17:58:16;;;;;;;1.50;0.90;;;;;;;;;;20777719;28;20214;-69
2023/06/30 18:08:18;;;;;;;1.08;0.70;;;;;;;;;;20776228;28;20306;-69
2023/06/30 18:18:20;;;;;;;0.90;0.60;;;;;;;;;;20791699;28;20368;-69
2023/06/30 18:28:22;;;;;;;1.00;0.63;;;;;;;;;;20775107;28;20230;-68
2023/06/30 18:38:24;;;;;;;1.10;0.57;;;;;;;;;;20814960;28;20220;-69
2023/06/30 18:48:26;;;;;;;0.85;0.47;;;;;;;;;;20858730;28;20243;-71
2023/06/30 18:58:28;;;;;;;0.88;0.60;;;;;;;;;;20790317;28;20224;-71
2023/06/30 19:08:30;;;;;;;1.60;0.60;;;;;;;;;;20835846;28;20290;-71
2023/06/30 19:18:32;;;;;;;1.30;0.70;;;;;;;;;;20845152;28;20232;-68
2023/06/30 19:28:33;;;;;;;1.38;0.60;;;;;;;;;;20804053;28;20295;-68
2023/06/30 19:38:37;;;;;;;1.20;0.60;;;;;;;;;;20808310;28;20683;-68
2023/06/30 19:48:41;;;;;;;1.08;0.50;;;;;;;;;;20833560;28;20290;-67
2023/06/30 19:58:44;;;;;;;1.52;0.70;;;;;;;;;;20787753;28;20259;-68
2023/06/30 20:08:47;;;;;;;1.13;0.60;;;;;;;;;;20778437;28;20300;-67
2023/06/30 20:18:50;;;;;;;2.03;0.70;;;;;;;;;;20767160;28;20278;-68
2023/06/30 20:28:51;;;;;;;1.23;0.65;;;;;;;;;;20767243;28;20306;-67
2023/06/30 20:38:53;;;;;;;1.25;0.50;;;;;;;;;;20803557;23;20278;-66
2023/06/30 20:48:55;;;;;;;4.75;0.65;;;;;;;;;;20756532;28;20228;-66
2023/06/30 20:58:57;;;;;;;0.68;0.50;;;;;;;;;;20769629;28;20239;-66
2023/06/30 21:08:59;;;;;;;1.38;0.50;;;;;;;;;;20773510;28;20580;-66
2023/06/30 21:19:00;;;;;;;1.05;0.60;;;;;;;;;;20778263;28;20628;-66
2023/06/30 21:29:02;;;;;;;0.63;0.40;;;;;;;;;;20766432;28;20761;-66
2023/06/30 21:39:04;;;;;;;0.55;0.40;;;;;;;;;;20802292;28;20233;-67
2023/06/30 21:49:06;;;;;;;1.33;0.50;;;;;;;;;;20689673;28;20730;-67
2023/06/30 21:59:08;;;;;;;1.02;0.40;;;;;;;;;;20705453;28;20232;-67
2023/06/30 22:09:10;;;;;;;2.25;0.50;;;;;;;;;;20689122;28;20289;-67
2023/06/30 22:19:12;;;;;;;1.13;0.63;;;;;;;;;;20690236;28;20221;-67
2023/06/30 22:29:14;;;;;;;1.55;0.60;;;;;;;;;;20694425;28;20281;-67
2023/06/30 22:39:16;;;;;;;1.75;0.65;;;;;;;;;;20819317;28;20272;-67
2023/06/30 22:49:17;;;;;;;0.90;0.60;;;;;;;;;;20707872;28;20236;-67
2023/06/30 22:59:19;;;;;;;0.68;0.50;;;;;;;;;;20694552;28;20208;-66
2023/06/30 23:09:21;;;;;;;0.93;0.68;;;;;;;;;;20762953;28;20240;-66
2023/06/30 23:19:26;;;;;;;5.28;0.93;;;;;;;;;;20771107;28;20752;-66
2023/06/30 23:29:28;;;;;;;1.30;0.60;;;;;;;;;;20773032;28;20262;-66
2023/06/30 23:39:30;;;;;;;1.17;0.65;;;;;;;;;;20778092;28;20231;-66
2023/06/30 23:49:32;;;;;;;1.70;0.82;;;22.30;99.90;;;;;;20692991;28;20584;-66
2023/06/30 23:59:34;;;;;;;1.08;0.65;;;22.20;99.90;;;;;;20704189;28;20236;-66
